Time;durP1;ratioP1;P1;durP2;ratioP2;P2;SDS_P1;SDS_P2;PMS_P1;PMS_P2;Temp;Humidity;BMP_temperature;BMP_pressure;BME280_temperature;BME280_humidity;BME280_pressure;Samples;Min_cycle;Max_cycle;Signal;HPM_P1;HPM_P2
2023/11/15 00:01:05;;;;;;;2.00;0.90;;;;;;;20.50;54.95;96694.94;105616;1260;60546;-47
2023/11/15 00:03:32;;;;;;;1.10;1.00;;;;;;;20.51;54.94;96689.66;105616;1257;60437;-47
2023/11/15 00:05:59;;;;;;;1.90;1.00;;;;;;;20.51;55.06;96687.02;105615;1257;74202;-47
2023/11/15 00:08:26;;;;;;;1.10;1.10;;;;;;;20.50;54.88;96686.31;105560;1260;66661;-49
2023/11/15 00:10:53;;;;;;;0.90;0.90;;;;;;;20.50;54.99;96685.70;105524;1257;72403;-47
2023/11/15 00:13:19;;;;;;;0.90;0.90;;;;;;;20.50;54.99;96681.58;105647;1260;60357;-46
2023/11/15 00:15:46;;;;;;;1.70;1.00;;;;;;;20.50;54.99;96681.58;105631;1260;60382;-47
2023/11/15 00:18:13;;;;;;;1.80;1.20;;;;;;;20.50;54.92;96683.20;105675;1260;73794;-46
2023/11/15 00:20:40;;;;;;;1.10;1.00;;;;;;;20.49;54.99;96684.14;105567;1260;65909;-47
2023/11/15 00:23:06;;;;;;;1.30;0.90;;;;;;;20.49;55.06;96683.27;105472;1257;72505;-48
2023/11/15 00:25:33;;;;;;;1.20;0.90;;;;;;;20.49;55.03;96684.68;105389;1260;60433;-48
2023/11/15 00:28:01;;;;;;;1.10;1.00;;;;;;;20.49;55.03;96687.41;105404;1257;60447;-48
2023/11/15 00:30:28;;;;;;;1.00;0.90;;;;;;;20.49;54.83;96684.60;105373;1257;73788;-47
2023/11/15 00:32:55;;;;;;;0.90;0.90;;;;;;;20.49;54.98;96678.63;105311;1260;65924;-47
2023/11/15 00:35:22;;;;;;;1.00;0.90;;;;;;;20.49;54.97;96674.12;105318;1260;72596;-47
2023/11/15 00:37:49;;;;;;;1.20;1.00;;;;;;;20.48;54.85;96669.14;105449;1260;60488;-47
2023/11/15 00:40:16;;;;;;;1.70;1.10;;;;;;;20.49;54.88;96665.11;105257;1257;60494;-49
2023/11/15 00:42:43;;;;;;;1.20;1.00;;;;;;;20.49;54.92;96656.87;105096;1263;73792;-46
2023/11/15 00:45:11;;;;;;;1.90;1.20;;;;;;;20.48;54.92;96662.08;105341;1260;65318;-47
2023/11/15 00:47:39;;;;;;;1.40;0.90;;;;;;;20.49;54.78;96663.63;105564;1260;71415;-47
2023/11/15 00:50:07;;;;;;;0.80;0.80;;;;;;;20.48;54.81;96661.53;105461;1260;60558;-47
2023/11/15 00:52:33;;;;;;;3.30;1.10;;;;;;;20.48;54.96;96655.00;105787;1260;60418;-47
2023/11/15 00:55:00;;;;;;;2.10;1.10;;;;;;;20.47;54.85;96646.67;105594;1258;73735;-47
2023/11/15 00:57:27;;;;;;;0.90;0.80;;;;;;;20.48;54.86;96646.85;105792;1260;65524;-47
2023/11/15 00:59:54;;;;;;;3.00;1.00;;;;;;;20.48;54.81;96641.86;105362;1257;72299;-47
2023/11/15 01:02:21;;;;;;;1.00;0.90;;;;;;;20.48;55.01;96640.23;105402;1260;60539;-47
2023/11/15 01:04:51;;;;;;;1.30;1.00;;;;;;;20.48;54.93;96637.44;105614;1257;61175;-47
2023/11/15 01:07:18;;;;;;;0.90;0.80;;;;;;;20.47;54.80;96635.10;106171;1256;73740;-47
2023/11/15 01:09:44;;;;;;;1.40;1.10;;;;;;;20.47;54.86;96633.00;105693;1260;66660;-47
2023/11/15 01:12:11;;;;;;;1.40;1.00;;;;;;;20.48;54.88;96632.54;105582;1257;71671;-47
2023/11/15 01:14:37;;;;;;;1.10;1.00;;;;;;;20.47;54.98;96621.73;105309;1261;60418;-47
2023/11/15 01:17:04;;;;;;;0.90;0.90;;;;;;;20.47;54.77;96618.09;105375;1256;61147;-47
2023/11/15 01:19:31;;;;;;;1.50;0.90;;;;;;;20.46;54.74;96612.96;105607;1257;73805;-47
2023/11/15 01:21:58;;;;;;;0.80;0.80;;;;;;;20.47;54.79;96616.52;105597;1260;65273;-47
2023/11/15 01:24:25;;;;;;;1.00;0.80;;;;;;;20.46;54.72;96617.47;105693;1256;72477;-48
2023/11/15 01:26:52;;;;;;;1.60;1.00;;;;;;;20.47;55.00;96615.28;105625;1260;60421;-48
2023/11/15 01:29:19;;;;;;;1.00;0.80;;;;;;;20.46;54.98;96614.36;105610;1256;60447;-47
2023/11/15 01:31:46;;;;;;;1.10;1.00;;;;;;;20.45;54.87;96612.11;105133;1258;73908;-48
2023/11/15 01:34:16;;;;;;;1.10;0.90;;;;;;;20.46;54.72;96611.55;105572;1260;65074;-47
2023/11/15 01:36:46;;;;;;;1.10;1.00;;;;;;;20.45;54.89;96608.45;105458;1260;73449;-47
2023/11/15 01:39:16;;;;;;;1.20;0.80;;;;;;;20.46;54.71;96608.92;105178;1263;60356;-47
2023/11/15 01:41:50;;;;;;;1.20;0.90;;;;;;;20.45;54.90;96608.53;105323;1257;60478;-48
2023/11/15 01:44:19;;;;;;;1.10;0.90;;;;;;;20.45;54.75;96609.38;105404;1257;72632;-47
2023/11/15 01:46:47;;;;;;;1.00;0.90;;;;;;;20.45;54.72;96609.14;105583;1260;64973;-48
2023/11/15 01:49:18;;;;;;;1.80;1.00;;;;;;;20.44;54.79;96613.02;105508;1257;72959;-48
2023/11/15 01:51:45;;;;;;;1.80;0.80;;;;;;;20.44;54.89;96615.75;105562;1257;60537;-48
2023/11/15 01:54:13;;;;;;;1.10;0.90;;;;;;;20.44;54.69;96615.66;105293;1256;60503;-47
2023/11/15 01:56:40;;;;;;;1.10;0.90;;;;;;;20.45;54.67;96619.17;105386;1257;74206;-47
2023/11/15 01:59:06;;;;;;;1.20;0.90;;;;;;;20.44;54.76;96624.84;105347;1263;65912;-47
2023/11/15 02:01:33;;;;;;;0.90;0.90;;;;;;;20.44;54.85;96627.71;105217;1260;72593;-47
2023/11/15 02:04:00;;;;;;;1.30;1.00;;;;;;;20.44;54.76;96631.52;105289;1263;60543;-47
2023/11/15 02:06:30;;;;;;;1.70;1.00;;;;;;;20.44;54.82;96633.55;105413;1260;60358;-47
2023/11/15 02:08:58;;;;;;;1.50;0.80;;;;;;;20.44;54.68;96638.60;105630;1257;73776;-48
2023/11/15 02:11:27;;;;;;;0.80;0.80;;;;;;;20.44;54.79;96641.47;105618;1257;65297;-48
2023/11/15 02:13:55;;;;;;;1.70;0.90;;;;;;;20.43;54.64;96642.63;105429;1257;72333;-47
2023/11/15 02:16:21;;;;;;;1.00;0.90;;;;;;;20.44;54.90;96642.95;105506;1260;60379;-48
2023/11/15 02:18:48;;;;;;;1.10;1.00;;;;;;;20.44;54.72;96642.56;105553;1261;60569;-48
2023/11/15 02:21:15;;;;;;;1.30;0.90;;;;;;;20.44;54.58;96640.30;105582;1260;73565;-48
2023/11/15 02:23:45;;;;;;;1.00;0.90;;;;;;;20.44;54.68;96638.98;105433;1260;65584;-48
2023/11/15 02:26:12;;;;;;;1.70;0.90;;;;;;;20.43;54.70;96644.42;105611;1258;71553;-47
2023/11/15 02:28:38;;;;;;;1.00;0.90;;;;;;;20.43;54.70;96645.13;105751;1256;61640;-48
2023/11/15 02:31:10;;;;;;;1.80;0.80;;;;;;;20.43;54.86;96646.76;105633;1257;60525;-47
2023/11/15 02:33:37;;;;;;;1.00;0.90;;;;;;;20.43;54.78;96648.39;105436;1257;73524;-48
2023/11/15 02:36:05;;;;;;;0.80;0.80;;;;;;;20.43;54.85;96648.30;105432;1260;65663;-47
2023/11/15 02:38:32;;;;;;;1.00;0.90;;;;;;;20.43;54.55;96646.67;105639;1258;72385;-47
2023/11/15 02:40:59;;;;;;;1.30;0.90;;;;;;;20.42;54.75;96644.02;105505;1260;60312;-48
2023/11/15 02:43:26;;;;;;;1.20;0.90;;;;;;;20.42;54.69;96640.29;105501;1257;60438;-49
2023/11/15 02:45:52;;;;;;;0.90;0.80;;;;;;;20.42;54.73;96642.02;105528;1257;73833;-48
2023/11/15 02:48:19;;;;;;;0.80;0.70;;;;;;;20.42;54.67;96643.70;105466;1260;66083;-48
2023/11/15 02:50:46;;;;;;;1.30;0.60;;;;;;;20.42;54.48;96641.77;105462;1257;72359;-46
2023/11/15 02:53:12;;;;;;;2.80;0.70;;;;;;;20.42;54.67;96647.83;105584;1260;61003;-46
2023/11/15 02:55:39;;;;;;;0.80;0.70;;;;;;;20.42;54.66;96643.66;105517;1260;60511;-47
2023/11/15 02:58:05;;;;;;;1.20;0.80;;;;;;;20.42;54.70;96643.40;105494;1260;60472;-47
2023/11/15 03:00:32;;;;;;;1.10;0.80;;;;;;;20.42;54.74;96643.02;105323;1263;65890;-48
2023/11/15 03:02:59;;;;;;;1.00;0.90;;;;;;;20.42;54.66;96643.48;105575;1257;72597;-48
2023/11/15 03:05:26;;;;;;;0.90;0.80;;;;;;;20.42;54.58;96652.02;105595;1260;60885;-48
2023/11/15 03:07:54;;;;;;;1.20;0.80;;;;;;;20.42;54.57;96648.23;105660;1257;60885;-47
2023/11/15 03:10:21;;;;;;;1.10;0.90;;;;;;;20.42;54.41;96645.34;105568;1260;73775;-48
2023/11/15 03:12:48;;;;;;;0.90;0.90;;;;;;;20.42;54.67;96643.40;105589;1263;66172;-47
2023/11/15 03:15:15;;;;;;;0.80;0.80;;;;;;;20.42;54.51;96641.69;105336;1257;72573;-47
2023/11/15 03:17:42;;;;;;;1.50;0.90;;;;;;;20.42;54.65;96643.64;105432;1260;60542;-48
2023/11/15 03:20:10;;;;;;;1.30;0.90;;;;;;;20.41;54.67;96638.60;105648;1257;60354;-47
2023/11/15 03:22:37;;;;;;;0.80;0.80;;;;;;;20.41;54.52;96640.78;105682;1257;72510;-48
2023/11/15 03:25:04;;;;;;;1.10;0.80;;;;;;;20.41;54.69;96646.75;105307;1260;65891;-48
2023/11/15 03:27:31;;;;;;;1.20;1.00;;;;;;;20.41;54.71;96648.23;105749;1260;72960;-48
2023/11/15 03:29:57;;;;;;;0.90;0.80;;;;;;;20.41;54.64;96647.68;105603;1260;60533;-48
2023/11/15 03:32:24;;;;;;;0.70;0.70;;;;;;;20.41;54.62;96650.02;105913;1257;60360;-47
2023/11/15 03:34:51;;;;;;;1.00;0.80;;;;;;;20.41;54.57;96652.04;105403;1260;74042;-48
2023/11/15 03:37:17;;;;;;;0.80;0.70;;;;;;;20.41;54.62;96651.80;105306;1260;66077;-49
2023/11/15 03:39:45;;;;;;;0.90;0.70;;;;;;;20.41;54.66;96649.94;105363;1257;72548;-47
2023/11/15 03:42:12;;;;;;;1.20;0.90;;;;;;;20.41;54.56;96652.96;105242;1260;60440;-48
2023/11/15 03:44:39;;;;;;;1.10;0.80;;;;;;;20.40;54.77;96657.77;105532;1257;60476;-48
2023/11/15 03:47:06;;;;;;;0.80;0.70;;;;;;;20.40;54.76;96658.16;105458;1258;73524;-48
2023/11/15 03:49:33;;;;;;;1.00;0.90;;;;;;;20.40;54.73;96658.79;105294;1260;66137;-48
2023/11/15 03:51:59;;;;;;;0.90;0.90;;;;;;;20.40;54.69;96661.58;105459;1257;72607;-48
2023/11/15 03:54:26;;;;;;;0.80;0.80;;;;;;;20.40;54.69;96661.66;105423;1260;60543;-48
2023/11/15 03:56:53;;;;;;;2.40;0.70;;;;;;;20.40;54.72;96660.34;105341;1257;60456;-48
2023/11/15 03:59:19;;;;;;;1.10;0.90;;;;;;;20.40;54.74;96663.67;105252;1258;73775;-48
2023/11/15 04:01:48;;;;;;;1.00;0.90;;;;;;;20.40;54.68;96664.77;105417;1260;65389;-48
2023/11/15 04:04:24;;;;;;;1.00;0.70;;;;;;;20.40;54.72;96663.76;105097;1258;72492;-48
2023/11/15 04:06:51;;;;;;;1.10;0.80;;;;;;;20.39;54.62;96660.42;105538;1260;60399;-48
2023/11/15 04:09:18;;;;;;;0.80;0.80;;;;;;;20.40;54.70;96657.92;105650;1257;60521;-48
2023/11/15 04:11:44;;;;;;;1.20;0.80;;;;;;;20.40;54.43;96663.60;105629;1256;73784;-48
2023/11/15 04:14:12;;;;;;;1.00;0.70;;;;;;;20.39;54.66;96666.80;105672;1260;66006;-48
2023/11/15 04:16:38;;;;;;;1.30;0.70;;;;;;;20.39;54.45;96666.64;105543;1260;73071;-48
2023/11/15 04:19:05;;;;;;;0.90;0.70;;;;;;;20.39;54.67;96670.30;105630;1260;60540;-48
2023/11/15 04:21:32;;;;;;;1.00;0.80;;;;;;;20.39;54.45;96671.23;105528;1256;60548;-48
2023/11/15 04:23:58;;;;;;;0.90;0.80;;;;;;;20.39;54.44;96669.27;105462;1258;73921;-48
2023/11/15 04:26:25;;;;;;;0.60;0.60;;;;;;;20.39;54.52;96668.42;105327;1260;65927;-48
2023/11/15 04:28:52;;;;;;;1.10;0.70;;;;;;;20.39;54.67;96668.89;105501;1257;72593;-48
2023/11/15 04:31:20;;;;;;;1.10;0.80;;;;;;;20.39;54.54;96673.08;105458;1260;60440;-48
2023/11/15 04:33:47;;;;;;;1.10;0.90;;;;;;;20.39;54.56;96672.86;105354;1257;60497;-47
2023/11/15 04:36:14;;;;;;;0.80;0.80;;;;;;;20.39;54.54;96672.85;105274;1258;60549;-49
2023/11/15 04:38:40;;;;;;;0.80;0.80;;;;;;;20.38;54.42;96674.09;105470;1260;65652;-49
2023/11/15 04:41:07;;;;;;;1.70;1.00;;;;;;;20.38;54.58;96673.78;105600;1257;72388;-46
2023/11/15 04:43:34;;;;;;;1.10;0.80;;;;;;;20.38;54.61;96669.50;105607;1260;61226;-48
2023/11/15 04:46:00;;;;;;;1.10;0.70;;;;;;;20.38;54.66;96667.26;105414;1257;60478;-48
2023/11/15 04:48:27;;;;;;;1.00;0.80;;;;;;;20.38;54.54;96666.17;105465;1258;72447;-49
2023/11/15 04:50:56;;;;;;;0.90;0.80;;;;;;;20.38;54.49;96666.71;105336;1260;67025;-48
2023/11/15 04:53:24;;;;;;;1.30;0.80;;;;;;;20.37;54.46;96668.17;105290;1258;72318;-49
2023/11/15 04:55:50;;;;;;;1.30;0.90;;;;;;;20.38;54.50;96662.44;105352;1261;60438;-48
2023/11/15 04:58:17;;;;;;;0.80;0.70;;;;;;;20.38;54.71;96654.75;105387;1257;60491;-47
2023/11/15 05:00:43;;;;;;;1.00;0.80;;;;;;;20.37;54.56;96655.83;105623;1257;73916;-48
2023/11/15 05:03:10;;;;;;;0.90;0.70;;;;;;;20.38;54.55;96653.03;105418;1260;66193;-48
2023/11/15 05:05:39;;;;;;;0.80;0.80;;;;;;;20.38;54.52;96650.08;105276;1257;72311;-47
2023/11/15 05:08:05;;;;;;;0.90;0.80;;;;;;;20.37;54.53;96649.53;105460;1260;60540;-48
2023/11/15 05:10:32;;;;;;;0.90;0.80;;;;;;;20.37;54.53;96654.19;105417;1260;60406;-48
2023/11/15 05:12:59;;;;;;;0.90;0.80;;;;;;;20.37;54.53;96651.01;105653;1260;73467;-48
2023/11/15 05:15:25;;;;;;;0.80;0.70;;;;;;;20.37;54.37;96645.65;105462;1260;66092;-48
2023/11/15 05:17:52;;;;;;;0.70;0.70;;;;;;;20.37;54.32;96651.16;105618;1257;72456;-48
2023/11/15 05:20:20;;;;;;;0.80;0.60;;;;;;;20.37;54.47;96653.35;105419;1260;60435;-47
2023/11/15 05:22:46;;;;;;;0.70;0.70;;;;;;;20.37;54.45;96655.13;105455;1257;60828;-47
2023/11/15 05:25:16;;;;;;;0.70;0.70;;;;;;;20.37;54.49;96651.88;105303;1260;73550;-48
2023/11/15 05:27:44;;;;;;;0.90;0.90;;;;;;;20.36;54.59;96652.81;105366;1260;66626;-48
2023/11/15 05:30:11;;;;;;;1.10;0.80;;;;;;;20.36;54.51;96652.89;105616;1257;72591;-48
2023/11/15 05:32:38;;;;;;;0.70;0.70;;;;;;;20.36;54.52;96654.36;105452;1260;60418;-48
2023/11/15 05:35:05;;;;;;;0.70;0.70;;;;;;;20.36;54.53;96655.98;105362;1257;60479;-48
2023/11/15 05:37:32;;;;;;;1.30;0.80;;;;;;;20.36;54.63;96656.54;105849;1253;73553;-48
2023/11/15 05:40:00;;;;;;;0.80;0.70;;;;;;;20.36;54.42;96653.04;105808;1256;65676;-48
2023/11/15 05:42:27;;;;;;;0.80;0.80;;;;;;;20.36;54.52;96651.70;106157;1255;72574;-48
2023/11/15 05:44:53;;;;;;;1.50;0.80;;;;;;;20.36;54.40;96653.81;105766;1257;60527;-48
2023/11/15 05:47:20;;;;;;;1.10;0.70;;;;;;;20.36;54.46;96656.84;106230;1257;60354;-48
2023/11/15 05:49:47;;;;;;;0.90;0.80;;;;;;;20.36;54.48;96658.39;105547;1254;73483;-46
2023/11/15 05:52:15;;;;;;;1.10;0.70;;;;;;;20.36;54.35;96657.53;105619;1257;64841;-44
2023/11/15 05:54:46;;;;;;;1.40;0.90;;;;;;;20.35;54.52;96655.44;105576;1257;73752;-49
2023/11/15 05:57:14;;;;;;;5.80;0.80;;;;;;;20.35;54.62;96660.48;105641;1256;60505;-47
2023/11/15 05:59:40;;;;;;;2.40;1.00;;;;;;;20.36;54.76;96660.42;105602;1254;60418;-46
2023/11/15 06:02:07;;;;;;;1.80;0.90;;;;;;;20.38;54.88;96665.63;105552;1253;73556;-46
2023/11/15 06:04:34;;;;;;;1.90;0.90;;;;;;;20.40;55.15;96664.00;105566;1254;67082;-48
2023/11/15 06:07:01;;;;;;;3.20;1.10;;;;;;;20.41;55.21;96668.59;105723;1257;72554;-49
2023/11/15 06:09:29;;;;;;;0.80;0.80;;;;;;;20.43;55.27;96667.49;105558;1257;60409;-48
2023/11/15 06:11:55;;;;;;;2.00;0.90;;;;;;;20.45;55.39;96665.17;105594;1256;60414;-53
2023/11/15 06:14:23;;;;;;;6.10;0.80;;;;;;;20.48;55.40;96666.66;105629;1254;73847;-54
2023/11/15 06:16:49;;;;;;;1.90;0.80;;;;;;;20.50;55.44;96662.46;105734;1256;65349;-53
2023/11/15 06:19:16;;;;;;;3.40;1.00;;;;;;;20.51;55.64;96665.26;105578;1257;72574;-51
2023/11/15 06:21:46;;;;;;;3.60;1.00;;;;;;;20.55;55.99;96668.23;105651;1257;60437;-50
2023/11/15 06:24:13;;;;;;;2.00;1.20;;;;;;;20.59;56.14;96666.83;105614;1257;60441;-50
2023/11/15 06:26:41;;;;;;;2.10;1.30;;;;;;;20.64;56.63;96670.64;105778;1257;74132;-49
2023/11/15 06:29:09;;;;;;;1.70;1.30;;;;;;;20.70;56.88;96665.20;105721;1255;66458;-46
2023/11/15 06:31:38;;;;;;;1.90;1.30;;;;;;;20.75;57.11;96662.64;108117;1254;72367;-55
2023/11/15 06:34:05;;;;;;;2.10;1.30;;;;;;;20.79;57.15;96665.84;106482;1253;60473;-54
2023/11/15 06:36:36;;;;;;;1.40;1.20;;;;;;;20.84;57.26;96666.69;105580;1254;60421;-54
2023/11/15 06:39:08;;;;;;;1.70;1.10;;;;;;;20.88;57.42;96663.67;105466;1254;74463;-55
2023/11/15 06:41:38;;;;;;;4.40;1.20;;;;;;;20.91;57.56;96661.48;105590;1257;64623;-58
2023/11/15 06:44:07;;;;;;;6.90;1.30;;;;;;;20.94;57.53;96660.09;105615;1254;72467;-56
2023/11/15 06:46:38;;;;;;;4.20;1.20;;;;;;;20.96;57.57;96664.45;105471;1260;60365;-55
2023/11/15 06:49:10;;;;;;;1.60;1.20;;;;;;;20.98;57.58;96662.81;105764;1255;60370;-56
2023/11/15 06:51:46;;;;;;;1.80;1.20;;;;;;;21.00;57.55;96661.25;105661;1254;72957;-58
2023/11/15 06:54:13;;;;;;;2.00;1.20;;;;;;;21.02;57.59;96660.31;109382;1254;64708;-52
2023/11/15 06:56:39;;;;;;;3.60;0.90;;;;;;;21.03;57.66;96663.29;109405;1253;58510;-53
2023/11/15 06:59:06;;;;;;;3.10;1.00;;;;;;;21.05;57.58;96664.86;109392;1256;58192;-48
2023/11/15 07:01:33;;;;;;;1.80;1.00;;;;;;;21.08;57.63;96660.02;105696;1253;60355;-51
2023/11/15 07:04:00;;;;;;;3.30;1.10;;;;;;;21.09;57.60;96655.84;105557;1254;73040;-55
2023/11/15 07:06:27;;;;;;;1.80;1.10;;;;;;;21.11;57.67;96654.60;105518;1264;64034;-54
2023/11/15 07:08:55;;;;;;;1.40;0.90;;;;;;;21.13;57.44;96654.98;105588;1254;73060;-53
2023/11/15 07:11:22;;;;;;;1.90;1.10;;;;;;;21.14;57.37;96655.60;105655;1257;60748;-50
2023/11/15 07:13:48;;;;;;;3.50;1.00;;;;;;;21.16;57.30;96655.52;105537;1254;60433;-53
2023/11/15 07:16:16;;;;;;;2.70;1.10;;;;;;;21.17;57.26;96654.05;105413;1256;73825;-54
2023/11/15 07:18:43;;;;;;;3.50;0.90;;;;;;;21.17;57.22;96656.15;105677;1257;65451;-56
2023/11/15 07:21:10;;;;;;;1.00;0.90;;;;;;;21.18;57.12;96659.80;105406;1258;72645;-52
2023/11/15 07:23:40;;;;;;;1.10;0.90;;;;;;;21.19;57.11;96656.61;105205;1256;60574;-53
2023/11/15 07:26:06;;;;;;;2.40;0.90;;;;;;;21.19;56.98;96656.69;109325;1252;60237;-51
2023/11/15 07:28:33;;;;;;;5.60;1.10;;;;;;;21.19;56.83;96652.17;106787;1254;74863;-51
2023/11/15 07:31:02;;;;;;;2.40;1.00;;;;;;;21.20;56.90;96653.80;109234;1254;66218;-52
2023/11/15 07:33:30;;;;;;;1.30;0.90;;;;;;;21.21;56.83;96653.02;106581;1254;72309;-51
2023/11/15 07:35:57;;;;;;;2.40;0.80;;;;;;;21.21;56.67;96656.14;108361;1253;60523;-51
2023/11/15 07:38:24;;;;;;;1.50;0.70;;;;;;;21.22;56.57;96656.37;109360;1253;59107;-52
2023/11/15 07:40:51;;;;;;;1.30;0.90;;;;;;;21.22;56.51;96658.30;105849;1254;72806;-52
2023/11/15 07:43:18;;;;;;;1.30;1.00;;;;;;;21.23;56.50;96660.10;105689;1257;64286;-51
2023/11/15 07:45:51;;;;;;;1.10;0.80;;;;;;;21.23;56.33;96657.85;105548;1257;72298;-51
2023/11/15 07:48:18;;;;;;;1.80;0.90;;;;;;;21.24;56.28;96664.63;105527;1257;60520;-53
2023/11/15 07:50:46;;;;;;;1.00;0.90;;;;;;;21.23;56.14;96666.55;105606;1254;60438;-51
2023/11/15 07:53:13;;;;;;;2.20;1.00;;;;;;;21.23;55.98;96669.98;105719;1254;73904;-52
2023/11/15 07:55:40;;;;;;;4.90;0.90;;;;;;;21.23;55.98;96672.79;105594;1257;65343;-52
2023/11/15 07:58:07;;;;;;;2.70;0.90;;;;;;;21.23;55.81;96671.61;105409;1262;73377;-51
2023/11/15 08:00:36;;;;;;;2.20;1.00;;;;;;;21.21;55.76;96670.84;105587;1260;61077;-52
2023/11/15 08:03:04;;;;;;;3.60;1.10;;;;;;;21.21;55.74;96671.92;105544;1253;60536;-51
2023/11/15 08:05:31;;;;;;;3.30;1.10;;;;;;;21.20;55.79;96669.67;105704;1256;73188;-51
2023/11/15 08:08:00;;;;;;;2.20;0.90;;;;;;;21.20;55.65;96668.98;105715;1257;64371;-53
2023/11/15 08:10:31;;;;;;;1.50;1.00;;;;;;;21.19;55.65;96669.91;105677;1255;73408;-53
2023/11/15 08:12:59;;;;;;;2.00;1.10;;;;;;;21.18;55.70;96677.06;105596;1260;60440;-52
2023/11/15 08:15:26;;;;;;;2.30;1.30;;;;;;;21.18;55.69;96679.24;105668;1256;60539;-52
2023/11/15 08:17:56;;;;;;;3.90;1.10;;;;;;;21.17;55.73;96677.23;105849;1255;72878;-52
2023/11/15 08:20:23;;;;;;;2.30;1.20;;;;;;;21.17;55.44;96680.26;105704;1256;64685;-53
2023/11/15 08:22:53;;;;;;;1.00;0.90;;;;;;;21.16;55.58;96680.56;105695;1257;72523;-51
2023/11/15 08:25:20;;;;;;;1.30;0.90;;;;;;;21.15;55.44;96680.10;105647;1258;60357;-52
2023/11/15 08:27:47;;;;;;;3.70;0.90;;;;;;;21.15;55.56;96680.33;105694;1254;60409;-52
2023/11/15 08:30:17;;;;;;;2.20;1.10;;;;;;;21.15;55.48;96686.16;105725;1257;73770;-51
2023/11/15 08:32:45;;;;;;;4.70;1.00;;;;;;;21.14;55.49;96682.27;105700;1257;65488;-52
2023/11/15 08:35:14;;;;;;;2.10;0.90;;;;;;;21.13;55.58;96687.41;105643;1254;72563;-52
2023/11/15 08:37:41;;;;;;;1.60;0.90;;;;;;;21.13;55.48;96686.02;105619;1257;60431;-52
2023/11/15 08:40:11;;;;;;;3.90;1.10;;;;;;;21.12;55.51;96687.34;105624;1256;60443;-52
2023/11/15 08:42:56;;;;;;;1.70;1.00;;;;;;;21.11;55.37;96695.04;105703;1262;74848;-52
2023/11/15 08:55:35;;;;;;;3.90;1.10;;;;;;;21.05;55.32;96687.48;105512;1257;60904;-51
2023/11/15 08:58:05;;;;;;;3.40;1.20;;;;;;;21.05;55.28;96689.59;105600;1255;60517;-48
2023/11/15 09:00:32;;;;;;;1.60;0.90;;;;;;;21.04;55.36;96690.27;105623;1257;73621;-50
2023/11/15 09:02:59;;;;;;;0.80;0.70;;;;;;;21.03;55.40;96688.64;105669;1256;66521;-51
2023/11/15 09:05:26;;;;;;;1.70;0.90;;;;;;;21.03;55.25;96683.98;105584;1254;73118;-52
2023/11/15 09:07:53;;;;;;;2.70;1.00;;;;;;;21.02;55.16;96683.02;105781;1257;60475;-48
2023/11/15 09:10:22;;;;;;;1.50;1.00;;;;;;;21.02;55.22;96688.16;105556;1257;60434;-47
2023/11/15 09:12:49;;;;;;;1.40;0.90;;;;;;;21.01;55.26;96688.23;105823;1257;74569;-46
2023/11/15 09:15:15;;;;;;;3.60;1.50;;;;;;;21.01;55.27;96686.61;105717;1256;65550;-48
2023/11/15 09:17:45;;;;;;;1.70;1.00;;;;;;;21.00;55.37;96684.98;105624;1257;72567;-48
2023/11/15 09:20:17;;;;;;;10.50;1.40;;;;;;;21.00;55.47;96681.09;105576;1256;60539;-49
2023/11/15 09:22:48;;;;;;;3.50;1.10;;;;;;;21.00;55.59;96681.63;105678;1256;61631;-43
2023/11/15 09:25:26;;;;;;;6.50;1.30;;;;;;;21.00;55.66;96681.31;105628;1257;74417;-43
2023/11/15 09:27:55;;;;;;;3.80;1.10;;;;;;;21.00;55.79;96676.34;105702;1257;65905;-42
2023/11/15 09:30:25;;;;;;;3.60;1.20;;;;;;;20.99;55.83;96678.44;105671;1254;73433;-43
2023/11/15 09:32:52;;;;;;;2.50;1.10;;;;;;;21.00;55.88;96676.73;104945;1260;644894;-44
2023/11/15 09:35:21;;;;;;;3.60;1.30;;;;;;;21.00;55.92;96675.33;105676;1255;60365;-43
2023/11/15 09:37:48;;;;;;;2.30;1.00;;;;;;;21.00;55.98;96672.38;105630;1257;74830;-44
2023/11/15 09:40:16;;;;;;;3.10;1.20;;;;;;;21.00;56.08;96674.55;105598;1257;65873;-44
2023/11/15 09:42:46;;;;;;;2.30;1.30;;;;;;;21.00;56.15;96674.56;105690;1255;73143;-45
2023/11/15 09:45:19;;;;;;;4.40;1.20;;;;;;;21.01;56.04;96672.21;105633;1255;60542;-47
2023/11/15 09:47:47;;;;;;;2.50;1.30;;;;;;;21.00;56.05;96670.04;105573;1260;60476;-44
2023/11/15 09:50:18;;;;;;;5.90;1.20;;;;;;;21.01;56.19;96670.50;105641;1257;74743;-45
2023/11/15 09:52:49;;;;;;;4.60;1.50;;;;;;;21.01;56.28;96672.91;105637;1257;66149;-46
2023/11/15 09:55:26;;;;;;;4.30;1.10;;;;;;;21.01;56.24;96671.98;105634;1254;72615;-45
2023/11/15 09:57:53;;;;;;;3.10;1.40;;;;;;;21.02;56.41;96671.29;105665;1266;61078;-45
2023/11/15 10:00:21;;;;;;;3.20;1.30;;;;;;;21.02;56.43;96669.96;105709;1257;60545;-43
2023/11/15 10:02:52;;;;;;;1.60;1.10;;;;;;;21.03;56.45;96669.81;105445;1260;74856;-44
2023/11/15 10:05:22;;;;;;;2.80;1.30;;;;;;;21.03;56.36;96670.59;105571;1260;65366;-41
2023/11/15 10:08:04;;;;;;;2.10;1.10;;;;;;;21.04;56.45;96672.69;105582;1266;73434;-43
2023/11/15 10:10:31;;;;;;;2.40;1.20;;;;;;;21.04;56.33;96673.73;105554;1260;60438;-45
2023/11/15 10:12:59;;;;;;;4.60;1.40;;;;;;;21.05;56.22;96672.17;105644;1260;61143;-47
2023/11/15 10:15:39;;;;;;;7.20;1.20;;;;;;;21.05;56.31;96674.89;105483;1258;74840;-43
2023/11/15 10:18:11;;;;;;;3.00;1.20;;;;;;;21.06;56.26;96672.57;105721;1258;66951;-44
2023/11/15 10:20:38;;;;;;;4.00;1.10;;;;;;;21.06;56.17;96672.02;105471;1257;73537;-46
2023/11/15 10:23:06;;;;;;;2.30;1.00;;;;;;;21.06;56.32;96669.52;105572;1258;60539;-46
2023/11/15 10:25:50;;;;;;;2.40;1.30;;;;;;;21.06;56.29;96667.13;105427;1258;60417;-47
2023/11/15 10:28:21;;;;;;;3.40;1.00;;;;;;;21.06;56.19;96669.59;105539;1254;74868;-45
2023/11/15 10:31:12;;;;;;;2.20;1.20;;;;;;;21.07;56.38;96668.67;105617;1260;67427;-46
2023/11/15 10:33:45;;;;;;;4.90;1.10;;;;;;;21.07;56.25;96672.25;105679;1254;73960;-47
2023/11/15 10:36:16;;;;;;;2.70;1.00;;;;;;;21.07;56.27;96672.02;105681;1265;60935;-44
2023/11/15 10:38:45;;;;;;;2.50;1.30;;;;;;;21.07;56.26;96669.69;105757;1254;61052;-45
2023/11/15 10:41:17;;;;;;;1.90;1.00;;;;;;;21.07;56.23;96669.84;105593;1257;75160;-46
2023/11/15 10:43:48;;;;;;;2.50;1.10;;;;;;;21.07;56.19;96671.39;105690;1261;65140;-43
2023/11/15 10:46:16;;;;;;;4.00;1.40;;;;;;;21.07;56.11;96667.98;105694;1257;72277;-47
2023/11/15 10:48:44;;;;;;;1.80;1.20;;;;;;;21.07;56.15;96670.54;105677;1266;60545;-43
2023/11/15 10:51:40;;;;;;;2.70;1.20;;;;;;;21.07;56.18;96669.05;108353;1254;61225;-47
2023/11/15 10:54:13;;;;;;;2.00;1.10;;;;;;;21.07;56.27;96668.84;105557;1255;74272;-44
2023/11/15 10:56:40;;;;;;;4.90;1.00;;;;;;;21.07;56.35;96666.89;105587;1257;66424;-44
2023/11/15 10:59:10;;;;;;;1.30;1.00;;;;;;;21.08;56.53;96669.75;105644;1257;73041;-45
2023/11/15 11:01:37;;;;;;;2.70;1.10;;;;;;;21.08;56.47;96671.08;105491;1266;60428;-44
2023/11/15 11:04:05;;;;;;;4.10;1.20;;;;;;;21.08;56.47;96668.59;105582;1253;60477;-44
2023/11/15 11:06:50;;;;;;;2.60;1.30;;;;;;;21.09;56.55;96664.31;105564;1254;74642;-43
2023/11/15 11:09:39;;;;;;;6.00;1.20;;;;;;;21.09;56.59;96671.16;105673;1257;67802;-43
2023/11/15 11:12:11;;;;;;;3.40;1.10;;;;;;;21.09;56.79;96662.21;105547;1255;72493;-45
2023/11/15 11:14:38;;;;;;;1.40;1.10;;;;;;;21.09;56.65;96664.48;105494;1260;60427;-44
2023/11/15 11:17:31;;;;;;;4.60;1.20;;;;;;;21.09;56.89;96665.87;105589;1257;61022;-45
2023/11/15 11:19:59;;;;;;;2.40;1.10;;;;;;;21.09;56.73;96669.38;105672;1256;74168;-46
2023/11/15 11:22:26;;;;;;;2.00;1.20;;;;;;;21.09;56.80;96669.84;106070;1257;66067;-47
2023/11/15 11:24:55;;;;;;;2.80;1.10;;;;;;;21.10;56.85;96672.34;105694;1255;72372;-43
2023/11/15 11:27:24;;;;;;;4.60;1.10;;;;;;;21.10;56.79;96671.71;105929;1259;60545;-46
2023/11/15 11:30:14;;;;;;;2.20;1.00;;;;;;;21.11;56.93;96672.55;105588;1257;60353;-44
2023/11/15 11:32:47;;;;;;;2.00;1.30;;;;;;;21.11;56.82;96673.10;105384;1257;74661;-45
2023/11/15 11:35:13;;;;;;;2.40;1.10;;;;;;;21.11;56.77;96673.41;107818;1253;66648;-44
2023/11/15 11:37:44;;;;;;;4.00;1.30;;;;;;;21.12;56.82;96675.45;105839;1254;73697;-45
2023/11/15 11:40:14;;;;;;;2.50;1.10;;;;;;;21.12;56.64;96681.98;105734;1257;60361;-44